Terminal Aerodrome Forecast
Issued by NWS Wilmington, OH

Current Version | Previous Version | Text Only | Print | Product List | Glossary Off
Versions: 1 2 3 4 5 6 7 8 9 10 11 12 13 14 15 16

000
FTUS41 KILN 210520
TAFILN
TAF
KILN 210520Z 2106/2206 23010KT P6SM FEW025 BKN040
      TEMPO 2107/2109 BKN025
     FM211000 26008KT P6SM SCT025
     FM211400 28012G20KT P6SM BKN035
     FM212300 31005KT P6SM SCT250=

USA.gov is the U.S. government's official web portal to all federal, state and local government web resources and services.